createdAt,value
2019-04-14T00:00:53.281Z,9.50
2019-04-14T00:03:21.632Z,9.57
2019-04-14T00:05:49.752Z,9.71
2019-04-14T00:08:15.690Z,9.69
2019-04-14T00:10:42.179Z,9.64
2019-04-14T00:13:08.986Z,9.52
2019-04-14T00:15:39.541Z,9.58
2019-04-14T00:18:03.237Z,9.57
2019-04-14T00:20:29.376Z,9.43
2019-04-14T00:22:55.579Z,9.61
2019-04-14T00:25:21.667Z,9.51
2019-04-14T00:27:47.688Z,9.33
2019-04-14T00:30:15.053Z,9.49
2019-04-14T00:32:44.355Z,9.55
2019-04-14T00:35:16.741Z,9.38
2019-04-14T00:37:53.454Z,9.36
2019-04-14T00:40:26.999Z,9.45
2019-04-14T00:43:00.593Z,9.40
2019-04-14T00:45:40.482Z,9.31
2019-04-14T00:48:07.952Z,8.83
2019-04-14T00:50:29.809Z,9.38
2019-04-14T00:52:56.652Z,9.49
2019-04-14T00:55:22.645Z,9.31
2019-04-14T00:57:48.726Z,9.17
2019-04-14T01:00:17.635Z,9.18
2019-04-14T01:02:42.988Z,9.15
2019-04-14T01:05:09.305Z,9.21
2019-04-14T01:07:35.130Z,9.38
2019-04-14T01:10:01.819Z,9.26
2019-04-14T01:12:27.867Z,9.06
2019-04-14T01:14:53.970Z,9.18
2019-04-14T01:17:19.979Z,9.16
2019-04-14T01:19:46.281Z,9.09
2019-04-14T01:22:12.262Z,8.94
2019-04-14T01:24:38.219Z,9.01
2019-04-14T01:27:04.194Z,9.10
2019-04-14T01:29:30.212Z,9.08
2019-04-14T01:31:56.216Z,9.11
2019-04-14T01:34:22.085Z,9.16
2019-04-14T01:36:48.048Z,9.09
2019-04-14T01:39:13.970Z,8.99
2019-04-14T01:41:41.013Z,9.06
2019-04-14T01:44:06.941Z,8.97
2019-04-14T01:46:34.363Z,8.88
2019-04-14T01:49:00.745Z,8.70
2019-04-14T01:51:41.668Z,8.73
2019-04-14T01:54:19.290Z,8.68
2019-04-14T01:56:56.251Z,8.67
2019-04-14T01:59:22.170Z,8.59
2019-04-14T02:01:52.658Z,8.58
2019-04-14T02:04:18.601Z,8.40
2019-04-14T02:06:46.001Z,8.35
2019-04-14T02:09:12.639Z,8.40
2019-04-14T02:11:39.832Z,8.47
2019-04-14T02:14:06.101Z,8.28
2019-04-14T02:16:39.466Z,8.25
2019-04-14T02:19:00.369Z,8.33
2019-04-14T02:21:27.931Z,8.43
2019-04-14T02:23:54.053Z,8.49
2019-04-14T02:26:19.860Z,8.43
2019-04-14T02:28:46.225Z,8.40
2019-04-14T02:31:33.353Z,8.42
2019-04-14T02:34:13.008Z,8.34
2019-04-14T02:39:07.682Z,8.14
2019-04-14T02:46:36.233Z,8.08
2019-04-14T02:49:08.266Z,8.18
2019-04-14T02:51:25.697Z,8.10
2019-04-14T02:58:55.198Z,8.06
2019-04-14T03:01:27.632Z,8.19
2019-04-14T03:03:41.539Z,8.13
2019-04-14T03:06:05.388Z,8.18
2019-04-14T03:08:45.653Z,8.08
2019-04-14T03:11:01.653Z,8.02
2019-04-14T03:13:35.388Z,8.09
2019-04-14T03:15:55.854Z,8.06
2019-04-14T03:21:29.228Z,8.25
2019-04-14T03:24:07.064Z,8.20
2019-04-14T03:26:40.322Z,8.13
2019-04-14T03:29:12.827Z,8.10
2019-04-14T03:31:59.743Z,8.22
2019-04-14T03:37:18.520Z,8.07
2019-04-14T03:38:58.545Z,8.13
2019-04-14T03:43:46.432Z,8.00
2019-04-14T03:46:25.346Z,8.17
2019-04-14T03:51:24.483Z,8.04
2019-04-14T03:53:39.839Z,7.97
2019-04-14T03:55:54.162Z,8.01
2019-04-14T03:58:15.969Z,7.86
2019-04-14T04:00:42.168Z,8.00
2019-04-14T04:03:08.479Z,7.98
2019-04-14T04:05:34.504Z,7.91
2019-04-14T04:08:00.358Z,7.94
2019-04-14T04:10:27.063Z,7.96
2019-04-14T04:12:53.245Z,8.03
2019-04-14T04:15:19.304Z,8.21
2019-04-14T04:17:47.298Z,8.14
2019-04-14T04:20:21.722Z,8.12
2019-04-14T04:23:07.391Z,8.06
2019-04-14T04:25:35.375Z,7.98
2019-04-14T04:28:03.775Z,8.06
2019-04-14T04:30:34.125Z,8.15
2019-04-14T04:33:14.024Z,8.13
2019-04-14T04:35:48.132Z,8.05
2019-04-14T04:38:16.002Z,7.94
2019-04-14T04:40:41.955Z,7.87
2019-04-14T04:43:07.978Z,7.90
2019-04-14T04:45:34.172Z,7.88
2019-04-14T04:48:00.269Z,7.75
2019-04-14T04:50:26.087Z,7.82
2019-04-14T04:52:51.914Z,7.83
2019-04-14T04:55:17.816Z,7.79
2019-04-14T04:57:43.816Z,7.67
2019-04-14T05:00:11.310Z,7.66
2019-04-14T05:02:37.480Z,7.53
2019-04-14T05:05:23.138Z,7.40
2019-04-14T05:07:49.104Z,7.48
2019-04-14T05:10:17.491Z,7.42
2019-04-14T05:12:45.676Z,7.23
2019-04-14T05:15:16.627Z,7.08
2019-04-14T05:17:47.395Z,7.11
2019-04-14T05:20:13.809Z,7.19
2019-04-14T05:22:39.863Z,7.11
2019-04-14T05:25:05.804Z,7.12
2019-04-14T05:27:31.971Z,7.18
2019-04-14T05:29:58.030Z,7.09
2019-04-14T05:32:24.076Z,7.13
2019-04-14T05:34:50.242Z,7.22
2019-04-14T05:37:18.240Z,6.96
2019-04-14T05:39:44.182Z,6.98
2019-04-14T05:42:17.142Z,7.11
2019-04-14T05:44:38.237Z,7.18
2019-04-14T05:47:04.436Z,7.31
2019-04-14T05:49:38.198Z,7.25
2019-04-14T05:51:59.092Z,7.16
2019-04-14T05:54:25.241Z,7.27
2019-04-14T05:56:51.599Z,7.22
2019-04-14T05:59:17.724Z,7.15
2019-04-14T06:01:44.316Z,7.00
2019-04-14T06:04:11.365Z,6.96
2019-04-14T06:06:37.390Z,7.01
2019-04-14T06:09:06.353Z,6.89
2019-04-14T06:11:32.155Z,6.84
2019-04-14T06:13:57.977Z,7.07
2019-04-14T06:16:23.953Z,7.15
2019-04-14T06:18:49.746Z,7.15
2019-04-14T06:21:15.565Z,7.31
2019-04-14T06:23:41.351Z,7.48
2019-04-14T06:26:07.047Z,7.37
2019-04-14T06:28:32.992Z,7.59
2019-04-14T06:31:18.997Z,7.74
2019-04-14T06:33:46.660Z,7.40
2019-04-14T06:36:30.847Z,7.63
2019-04-14T06:39:07.686Z,7.86
2019-04-14T06:41:33.458Z,7.77
2019-04-14T06:43:59.174Z,7.98
2019-04-14T06:46:24.958Z,8.06
2019-04-14T06:48:50.842Z,8.12
2019-04-14T06:51:16.631Z,8.02
2019-04-14T06:53:42.326Z,8.03
2019-04-14T06:56:08.131Z,8.16
2019-04-14T06:58:33.939Z,8.10
2019-04-14T07:00:59.730Z,8.33
2019-04-14T07:03:25.681Z,8.42
2019-04-14T07:05:51.386Z,8.50
2019-04-14T07:08:17.099Z,8.31
2019-04-14T07:10:43.056Z,8.45
2019-04-14T07:13:08.732Z,8.41
2019-04-14T07:15:34.419Z,8.37
2019-04-14T07:18:00.132Z,8.54
2019-04-14T07:20:25.965Z,8.42
2019-04-14T07:22:51.685Z,8.55
2019-04-14T07:25:17.389Z,8.65
2019-04-14T07:27:43.070Z,8.59
2019-04-14T07:30:16.406Z,8.78
2019-04-14T07:33:00.643Z,8.97
2019-04-14T07:35:40.578Z,9.33
2019-04-14T07:38:10.923Z,9.14
2019-04-14T07:40:55.575Z,9.26
2019-04-14T07:43:23.243Z,9.22
2019-04-14T07:48:46.469Z,8.97
2019-04-14T07:51:14.162Z,9.17
2019-04-14T07:53:41.959Z,9.19
2019-04-14T07:56:12.783Z,9.11
2019-04-14T07:58:58.429Z,9.03
2019-04-14T08:01:28.743Z,9.06
2019-04-14T08:04:05.208Z,9.16
2019-04-14T08:06:31.773Z,9.18
2019-04-14T08:08:57.460Z,9.26
2019-04-14T08:11:23.150Z,9.31
2019-04-14T08:13:49.119Z,9.18
2019-04-14T08:16:14.813Z,9.30
2019-04-14T08:18:40.517Z,9.30
2019-04-14T08:21:06.240Z,9.21
2019-04-14T08:23:31.923Z,9.46
2019-04-14T08:25:57.782Z,9.26
2019-04-14T08:28:23.589Z,9.34
2019-04-14T08:30:49.378Z,9.47
2019-04-14T08:33:15.131Z,9.62
2019-04-14T08:35:40.811Z,9.66
2019-04-14T08:38:06.527Z,9.59
2019-04-14T08:40:32.326Z,9.54
2019-04-14T08:43:09.102Z,9.25
2019-04-14T08:45:53.343Z,9.28
2019-04-14T08:48:37.615Z,9.29
2019-04-14T08:51:08.232Z,9.21
2019-04-14T08:53:36.010Z,9.47
2019-04-14T08:56:03.689Z,9.36
2019-04-14T08:58:40.379Z,9.38
2019-04-14T09:01:10.834Z,9.54
2019-04-14T09:03:41.456Z,9.33
2019-04-14T09:06:09.211Z,9.15
2019-04-14T09:08:53.730Z,9.33
2019-04-14T09:11:21.576Z,9.02
2019-04-14T09:13:47.402Z,9.28
2019-04-14T09:16:13.094Z,9.51
2019-04-14T09:18:38.846Z,9.37
2019-04-14T09:21:04.777Z,9.20
2019-04-14T09:23:30.569Z,9.26
2019-04-14T09:25:56.359Z,9.25
2019-04-14T09:28:22.159Z,9.25
2019-04-14T09:30:48.028Z,9.37
2019-04-14T09:33:13.900Z,9.49
2019-04-14T09:35:39.757Z,9.52
2019-04-14T09:38:05.449Z,9.52
2019-04-14T09:40:31.197Z,9.55
2019-04-14T09:42:57.782Z,9.65
2019-04-14T09:45:24.034Z,9.87
2019-04-14T09:47:49.800Z,9.74
2019-04-14T09:50:15.586Z,9.78
2019-04-14T09:52:41.351Z,9.80
2019-04-14T09:55:09.538Z,9.76
2019-04-14T09:57:35.218Z,9.96
2019-04-14T10:00:01.150Z,10.23
2019-04-14T10:02:27.122Z,10.14
2019-04-14T10:04:52.803Z,10.06
2019-04-14T10:07:18.623Z,9.86
2019-04-14T10:09:44.449Z,9.92
2019-04-14T10:12:10.261Z,10.53
2019-04-14T10:14:35.967Z,10.20
2019-04-14T10:17:01.763Z,10.76
2019-04-14T10:19:27.617Z,9.91
2019-04-14T10:21:53.286Z,10.03
2019-04-14T10:24:19.016Z,11.03
2019-04-14T10:26:44.807Z,10.90
2019-04-14T10:29:10.583Z,12.34
2019-04-14T10:31:36.378Z,10.05
2019-04-14T10:34:02.076Z,9.96
2019-04-14T10:36:27.899Z,10.00
2019-04-14T10:38:53.770Z,10.01
2019-04-14T10:41:19.437Z,10.11
2019-04-14T10:43:45.218Z,10.12
2019-04-14T10:46:11.058Z,10.05
2019-04-14T10:48:36.799Z,9.90
2019-04-14T10:51:02.805Z,9.75
2019-04-14T10:53:28.723Z,9.88
2019-04-14T10:55:54.388Z,9.95
2019-04-14T10:58:20.168Z,9.93
2019-04-14T11:00:46.245Z,9.33
2019-04-14T11:03:12.020Z,9.76
2019-04-14T11:05:39.631Z,9.75
2019-04-14T11:08:05.302Z,10.06
2019-04-14T11:10:31.025Z,9.90
2019-04-14T11:12:56.773Z,9.88
2019-04-14T11:15:22.673Z,9.84
2019-04-14T11:17:48.414Z,9.60
2019-04-14T11:20:14.216Z,9.51
2019-04-14T11:22:39.936Z,9.70
2019-04-14T11:25:05.802Z,9.63
2019-04-14T11:27:31.489Z,9.56
2019-04-14T11:29:57.281Z,9.49
2019-04-14T11:32:27.624Z,9.73
2019-04-14T11:35:07.375Z,9.89
2019-04-14T11:37:37.684Z,9.50
2019-04-14T11:40:06.089Z,9.84
2019-04-14T11:42:31.892Z,9.68
2019-04-14T11:44:57.709Z,9.66
2019-04-14T11:47:23.750Z,9.61
2019-04-14T11:49:49.668Z,9.06
2019-04-14T11:52:15.539Z,8.47
2019-04-14T11:54:41.222Z,8.47
2019-04-14T11:57:06.929Z,8.62
2019-04-14T11:59:37.275Z,8.31
2019-04-14T12:02:05.062Z,8.20
2019-04-14T12:04:32.659Z,8.58
2019-04-14T12:07:12.052Z,9.03
2019-04-14T12:09:39.787Z,8.46
2019-04-14T12:12:07.650Z,8.16
2019-04-14T12:14:33.348Z,8.09
2019-04-14T12:16:59.054Z,8.18
2019-04-14T12:19:24.882Z,8.20
2019-04-14T12:21:50.595Z,8.17
2019-04-14T12:24:16.304Z,8.30
2019-04-14T12:26:42.056Z,8.43
2019-04-14T12:29:07.754Z,8.12
2019-04-14T12:31:33.636Z,8.10
2019-04-14T12:33:59.533Z,8.15
2019-04-14T12:36:25.202Z,8.11
2019-04-14T12:38:50.952Z,8.11
2019-04-14T12:41:28.755Z,8.13
2019-04-14T12:44:05.507Z,8.24
2019-04-14T12:46:38.927Z,8.15
2019-04-14T12:49:09.776Z,8.21
2019-04-14T12:51:40.449Z,8.16
2019-04-14T12:54:09.296Z,8.45
2019-04-14T12:56:39.357Z,8.24
2019-04-14T12:59:10.186Z,8.21
2019-04-14T13:01:43.759Z,8.39
2019-04-14T13:04:11.703Z,8.52
2019-04-14T13:06:37.602Z,8.36
2019-04-14T13:09:04.569Z,8.24
2019-04-14T13:11:30.443Z,8.17
2019-04-14T13:13:56.334Z,8.15
2019-04-14T13:16:22.050Z,8.10
2019-04-14T13:18:47.894Z,8.15
2019-04-14T13:21:13.707Z,8.33
2019-04-14T13:23:39.383Z,8.36
2019-04-14T13:26:05.133Z,8.52
2019-04-14T13:28:31.926Z,8.35
2019-04-14T13:30:57.803Z,8.54
2019-04-14T13:33:23.559Z,8.74
2019-04-14T13:35:49.400Z,8.79
2019-04-14T13:38:15.342Z,8.79
2019-04-14T13:40:41.185Z,9.16
2019-04-14T13:43:07.027Z,9.14
2019-04-14T13:45:32.982Z,9.06
2019-04-14T13:47:58.739Z,9.32
2019-04-14T13:50:24.534Z,9.34
2019-04-14T13:52:50.252Z,9.32
2019-04-14T13:55:16.306Z,9.49
2019-04-14T13:57:42.070Z,9.15
2019-04-14T14:00:12.965Z,8.88
2019-04-14T14:02:38.891Z,8.84
2019-04-14T14:05:04.714Z,8.89
2019-04-14T14:07:30.564Z,9.09
2019-04-14T14:09:57.214Z,9.20
2019-04-14T14:12:31.156Z,9.30
2019-04-14T14:15:15.537Z,9.53
2019-04-14T14:18:01.112Z,9.34
2019-04-14T14:20:37.993Z,9.63
2019-04-14T14:23:05.786Z,10.68
2019-04-14T14:25:36.327Z,10.74
2019-04-14T14:28:02.200Z,11.16
2019-04-14T14:30:27.958Z,12.05
2019-04-14T14:32:53.870Z,12.09
2019-04-14T14:35:19.672Z,12.22
2019-04-14T14:37:45.362Z,12.70
2019-04-14T14:40:11.183Z,11.84
2019-04-14T14:42:36.918Z,11.17
2019-04-14T14:45:22.059Z,11.78
2019-04-14T14:47:49.643Z,12.11
2019-04-14T14:50:17.349Z,10.95
2019-04-14T14:52:43.105Z,11.45
2019-04-14T14:55:08.975Z,12.01
2019-04-14T14:57:34.766Z,11.76
2019-04-14T15:00:04.163Z,11.08
2019-04-14T15:02:29.962Z,11.09
2019-04-14T15:04:55.751Z,11.32
2019-04-14T15:07:21.462Z,10.36
2019-04-14T15:09:47.241Z,10.18
2019-04-14T15:12:13.010Z,10.57
2019-04-14T15:14:38.718Z,10.94
2019-04-14T15:17:04.427Z,10.69
2019-04-14T15:19:30.138Z,10.53
2019-04-14T15:21:56.043Z,10.70
2019-04-14T15:24:21.818Z,10.63
2019-04-14T15:26:47.489Z,10.65
2019-04-14T15:29:13.314Z,10.67
2019-04-14T15:31:39.146Z,10.71
2019-04-14T15:34:04.827Z,10.82
2019-04-14T15:36:30.605Z,10.40
2019-04-14T15:38:56.529Z,10.55
2019-04-14T15:41:22.410Z,10.47
2019-04-14T15:43:48.257Z,10.88
2019-04-14T15:46:14.155Z,10.90
2019-04-14T15:48:39.892Z,10.44
2019-04-14T15:51:05.717Z,10.27
2019-04-14T15:53:37.727Z,10.44
2019-04-14T15:55:59.473Z,10.44
2019-04-14T15:58:45.433Z,10.33
2019-04-14T16:01:13.161Z,10.17
2019-04-14T16:03:59.205Z,10.13
2019-04-14T16:06:29.699Z,10.16
2019-04-14T16:08:57.399Z,10.09
2019-04-14T16:11:30.787Z,10.05
2019-04-14T16:14:07.516Z,9.99
2019-04-14T16:16:35.200Z,10.04
2019-04-14T16:19:08.448Z,10.12
2019-04-14T16:21:34.291Z,10.07
2019-04-14T16:24:00.174Z,10.02
2019-04-14T16:26:27.789Z,10.05
2019-04-14T16:28:55.446Z,9.99
2019-04-14T16:31:39.516Z,9.98
2019-04-14T16:34:13.163Z,9.85
2019-04-14T16:36:39.520Z,9.96
2019-04-14T16:39:06.010Z,9.92
2019-04-14T16:41:31.784Z,9.88
2019-04-14T16:43:57.502Z,9.83
2019-04-14T16:46:23.250Z,9.85
2019-04-14T16:48:48.977Z,9.92
2019-04-14T16:51:22.849Z,9.80
2019-04-14T16:53:48.646Z,9.85
2019-04-14T16:56:28.346Z,9.76
2019-04-14T16:58:56.102Z,9.89
2019-04-14T17:01:26.682Z,9.99
2019-04-14T17:03:52.514Z,9.86
2019-04-14T17:06:18.184Z,9.77
2019-04-14T17:08:44.021Z,9.85
2019-04-14T17:11:09.852Z,9.70
2019-04-14T17:13:37.428Z,9.65
2019-04-14T17:16:21.544Z,9.59
2019-04-14T17:18:49.338Z,9.68
2019-04-14T17:21:19.952Z,9.70
2019-04-14T17:24:02.261Z,9.62
2019-04-14T17:26:41.636Z,9.61
2019-04-14T17:29:24.728Z,9.62
2019-04-14T17:31:58.270Z,9.53
2019-04-14T17:34:28.997Z,9.54
2019-04-14T17:37:08.718Z,9.46
2019-04-14T17:39:48.310Z,9.56
2019-04-14T17:42:18.540Z,9.61
2019-04-14T17:44:46.153Z,9.57
2019-04-14T17:47:26.732Z,9.56
2019-04-14T17:50:06.079Z,9.56
2019-04-14T17:52:42.335Z,9.49
2019-04-14T17:55:15.763Z,9.39
2019-04-14T17:57:49.827Z,9.37
2019-04-14T18:00:32.735Z,9.40
2019-04-14T18:03:02.009Z,9.24
2019-04-14T18:05:32.498Z,9.49
2019-04-14T18:08:00.090Z,9.45
2019-04-14T18:10:29.781Z,9.44
2019-04-14T18:12:57.462Z,9.44
2019-04-14T18:15:25.277Z,9.35
2019-04-14T18:18:09.464Z,9.29
2019-04-14T18:20:42.938Z,9.26
2019-04-14T18:23:08.734Z,9.20
2019-04-14T18:25:34.496Z,9.16
2019-04-14T18:28:17.398Z,8.93
2019-04-14T18:31:03.494Z,8.92
2019-04-14T18:33:31.083Z,8.78
2019-04-14T18:36:15.505Z,8.84
2019-04-14T18:38:43.232Z,8.83
2019-04-14T18:41:23.152Z,8.74
2019-04-14T18:44:05.857Z,8.52
2019-04-14T18:46:45.634Z,8.55
2019-04-14T18:49:13.395Z,8.62
2019-04-14T18:51:41.191Z,8.60
2019-04-14T18:54:08.824Z,8.48
2019-04-14T18:56:54.767Z,8.47
2019-04-14T18:59:39.451Z,8.50
2019-04-14T19:02:05.253Z,8.48
2019-04-14T19:04:31.038Z,8.47
2019-04-14T19:06:57.054Z,8.53
2019-04-14T19:09:22.842Z,8.44
2019-04-14T19:11:50.606Z,8.52
2019-04-14T19:14:21.073Z,8.50
2019-04-14T19:16:51.292Z,8.44
2019-04-14T19:19:19.090Z,8.49
2019-04-14T19:21:44.988Z,8.41
2019-04-14T19:24:10.655Z,8.38
2019-04-14T19:26:36.459Z,8.37
2019-04-14T19:29:02.300Z,8.42
2019-04-14T19:31:28.089Z,8.37
2019-04-14T19:33:53.920Z,8.41
2019-04-14T19:36:19.686Z,8.37
2019-04-14T19:38:45.539Z,8.45
2019-04-14T19:41:11.609Z,8.40
2019-04-14T19:43:37.479Z,8.50
2019-04-14T19:46:04.822Z,8.55
2019-04-14T19:48:30.957Z,8.55
2019-04-14T19:50:56.997Z,8.53
2019-04-14T19:53:23.216Z,8.51
2019-04-14T19:55:49.458Z,8.54
2019-04-14T19:58:15.281Z,8.68
2019-04-14T20:00:41.138Z,8.72
2019-04-14T20:03:08.169Z,8.66
2019-04-14T20:05:35.965Z,8.70
2019-04-14T20:08:03.657Z,8.66
2019-04-14T20:10:29.533Z,8.69
2019-04-14T20:12:55.869Z,8.59
2019-04-14T20:15:23.651Z,8.56
2019-04-14T20:17:51.413Z,8.44
2019-04-14T20:20:31.809Z,8.45
2019-04-14T20:23:02.849Z,8.54
2019-04-14T20:25:48.617Z,8.53
2019-04-14T20:28:16.386Z,8.51
2019-04-14T20:30:44.130Z,8.52
2019-04-14T20:33:10.079Z,8.50
2019-04-14T20:35:35.895Z,8.56
2019-04-14T20:38:01.737Z,8.52
2019-04-14T20:40:27.669Z,8.38
2019-04-14T20:42:53.525Z,8.51
2019-04-14T20:45:19.440Z,8.42
2019-04-14T20:47:45.238Z,8.51
2019-04-14T20:50:11.252Z,8.52
2019-04-14T20:52:37.027Z,8.43
2019-04-14T20:55:04.831Z,8.40
2019-04-14T20:57:30.493Z,8.39
2019-04-14T20:59:56.191Z,8.44
2019-04-14T21:02:29.485Z,8.42
2019-04-14T21:05:12.094Z,8.46
2019-04-14T21:07:42.433Z,8.49
2019-04-14T21:10:18.727Z,8.48
2019-04-14T21:13:02.859Z,8.48
2019-04-14T21:15:39.600Z,8.44
2019-04-14T21:18:13.184Z,8.44
2019-04-14T21:20:41.002Z,8.45
2019-04-14T21:23:15.044Z,8.42
2019-04-14T21:26:00.840Z,8.45
2019-04-14T21:28:27.678Z,8.42
2019-04-14T21:31:04.138Z,8.36
2019-04-14T21:33:31.903Z,8.49
2019-04-14T21:36:05.185Z,8.47
2019-04-14T21:38:41.886Z,8.40
2019-04-14T21:41:21.305Z,8.44
2019-04-14T21:43:47.161Z,8.44
2019-04-14T21:46:13.458Z,8.37
2019-04-14T21:48:39.205Z,8.33
2019-04-14T21:51:05.119Z,8.27
2019-04-14T21:53:30.815Z,8.25
2019-04-14T21:55:56.611Z,8.27
2019-04-14T21:58:27.139Z,8.36
2019-04-14T22:01:05.201Z,8.32
2019-04-14T22:03:49.497Z,8.35
2019-04-14T22:06:23.204Z,8.36
2019-04-14T22:08:50.963Z,8.40
2019-04-14T22:11:26.882Z,8.32
2019-04-14T22:13:52.696Z,8.26
2019-04-14T22:16:18.586Z,8.29
2019-04-14T22:18:44.319Z,8.25
2019-04-14T22:21:10.130Z,8.21
2019-04-14T22:23:35.818Z,8.22
2019-04-14T22:26:02.986Z,8.20
2019-04-14T22:28:28.809Z,8.17
2019-04-14T22:30:54.570Z,8.17
2019-04-14T22:33:20.404Z,8.18
2019-04-14T22:35:46.276Z,8.14
2019-04-14T22:38:12.019Z,8.10
2019-04-14T22:40:37.929Z,8.13
2019-04-14T22:43:03.684Z,8.12
2019-04-14T22:45:29.404Z,8.23
2019-04-14T22:47:55.246Z,8.14
2019-04-14T22:50:20.968Z,8.16
2019-04-14T22:52:46.867Z,8.10
2019-04-14T22:55:12.754Z,8.11
2019-04-14T22:57:38.558Z,8.17
2019-04-14T23:00:08.955Z,8.18
2019-04-14T23:02:53.514Z,8.16
2019-04-14T23:05:27.043Z,8.15
2019-04-14T23:08:12.570Z,8.16
2019-04-14T23:10:58.463Z,8.05
2019-04-14T23:13:26.086Z,8.02
2019-04-14T23:15:59.930Z,7.97
2019-04-14T23:18:27.651Z,7.98
2019-04-14T23:20:55.262Z,7.93
2019-04-14T23:23:25.747Z,8.00
2019-04-14T23:25:51.507Z,7.89
2019-04-14T23:28:17.176Z,7.83
2019-04-14T23:30:43.055Z,7.87
2019-04-14T23:33:08.742Z,7.85
2019-04-14T23:35:34.438Z,7.87
2019-04-14T23:38:00.289Z,7.86
2019-04-14T23:40:25.960Z,7.79
2019-04-14T23:42:51.738Z,7.92
2019-04-14T23:45:17.589Z,7.99
2019-04-14T23:47:43.413Z,8.03
2019-04-14T23:50:09.259Z,8.10
2019-04-14T23:52:34.951Z,8.15
2019-04-14T23:55:00.733Z,8.17
2019-04-14T23:57:26.435Z,8.28
2019-04-14T23:59:52.114Z,8.24
